Time;durP1;ratioP1;P1;durP2;ratioP2;P2;SDS_P1;SDS_P2;PMS_P1;PMS_P2;Temp;Humidity;BMP_temperature;BMP_pressure;BME280_temperature;BME280_humidity;BME280_pressure;Samples;Min_cycle;Max_cycle;Signal;HPM_P1;HPM_P2
2021/03/08 00:00:32;;;;;;;2.63;2.03;;;23.30;27.90;;;;;;5070256;28;20568;-60
2021/03/08 00:02:58;;;;;;;2.43;2.23;;;23.30;27.90;;;;;;5069439;28;20212;-61
2021/03/08 00:05:24;;;;;;;2.73;2.37;;;23.20;27.90;;;;;;5070852;28;20197;-60
2021/03/08 00:07:50;;;;;;;2.40;2.20;;;23.30;28.00;;;;;;5070349;28;20224;-61
2021/03/08 00:10:16;;;;;;;2.73;2.10;;;23.30;28.10;;;;;;5069883;28;20235;-61
2021/03/08 00:12:42;;;;;;;2.37;2.10;;;23.30;28.20;;;;;;5070538;28;20251;-60
2021/03/08 00:15:08;;;;;;;2.90;1.90;;;23.30;28.10;;;;;;5069987;28;20212;-61
2021/03/08 00:17:34;;;;;;;2.00;1.90;;;23.20;28.00;;;;;;5071020;28;20224;-61
2021/03/08 00:20:00;;;;;;;3.07;2.30;;;23.20;28.20;;;;;;5070892;28;20227;-61
2021/03/08 00:22:26;;;;;;;2.00;1.83;;;23.30;28.20;;;;;;5064697;28;20209;-61
2021/03/08 00:24:52;;;;;;;2.93;1.77;;;23.20;28.20;;;;;;5064442;28;20197;-61
2021/03/08 00:27:18;;;;;;;2.20;1.88;;;23.20;28.20;;;;;;5069868;28;20595;-61
2021/03/08 00:29:43;;;;;;;2.17;1.97;;;23.20;28.20;;;;;;5071105;28;20224;-61
2021/03/08 00:32:10;;;;;;;2.67;2.10;;;23.30;28.10;;;;;;5069964;28;20201;-60
2021/03/08 00:34:36;;;;;;;1.93;1.83;;;23.20;28.10;;;;;;5067604;28;20208;-61
2021/03/08 00:37:02;;;;;;;2.33;2.13;;;23.20;28.00;;;;;;5071277;28;20230;-61
2021/03/08 00:39:28;;;;;;;2.20;2.00;;;23.20;28.00;;;;;;5068998;28;20235;-61
2021/03/08 00:41:54;;;;;;;4.35;2.28;;;23.20;28.00;;;;;;5070065;28;20193;-61
2021/03/08 00:44:20;;;;;;;2.27;2.07;;;23.20;28.10;;;;;;5071923;28;20251;-61
2021/03/08 00:46:45;;;;;;;2.53;2.07;;;23.20;28.00;;;;;;5064044;28;20225;-61
2021/03/08 00:49:11;;;;;;;2.50;2.30;;;23.20;28.00;;;;;;5064751;28;20580;-60
2021/03/08 00:51:37;;;;;;;2.53;1.83;;;23.20;28.00;;;;;;5073895;28;20233;-60
2021/03/08 00:54:03;;;;;;;4.43;2.08;;;23.20;27.90;;;;;;5073067;28;20197;-60
2021/03/08 00:56:29;;;;;;;2.40;2.20;;;23.20;27.90;;;;;;5075109;28;20229;-60
2021/03/08 00:58:55;;;;;;;2.30;2.10;;;23.20;27.90;;;;;;5070903;28;20197;-60
2021/03/08 01:01:21;;;;;;;2.30;2.10;;;23.20;28.00;;;;;;5074123;28;20209;-60
2021/03/08 01:03:47;;;;;;;3.13;1.90;;;23.20;28.00;;;;;;5072610;28;20207;-60
2021/03/08 01:06:13;;;;;;;3.83;2.17;;;23.20;27.90;;;;;;5073607;28;20251;-60
2021/03/08 01:08:39;;;;;;;2.03;1.93;;;23.20;27.90;;;;;;5074959;28;20227;-60
2021/03/08 01:11:05;;;;;;;2.70;2.10;;;23.20;28.00;;;;;;5065900;28;20710;-60
2021/03/08 01:13:30;;;;;;;2.45;2.20;;;23.20;27.90;;;;;;5072847;28;20209;-60
2021/03/08 01:15:56;;;;;;;1.87;1.77;;;23.20;27.90;;;;;;5068071;28;20217;-60
2021/03/08 01:18:22;;;;;;;2.27;2.00;;;23.20;27.90;;;;;;5073193;28;20205;-60
2021/03/08 01:20:48;;;;;;;3.13;2.00;;;23.20;27.90;;;;;;5074247;28;20193;-60
2021/03/08 01:23:14;;;;;;;2.30;2.10;;;23.20;27.90;;;;;;5072103;28;20200;-60
2021/03/08 01:25:40;;;;;;;2.40;2.20;;;23.20;27.90;;;;;;5071563;28;20279;-60
2021/03/08 01:28:06;;;;;;;2.20;2.03;;;23.20;27.90;;;;;;5071206;28;20228;-61
2021/03/08 01:30:32;;;;;;;3.50;2.07;;;23.20;28.00;;;;;;5072585;28;20593;-60
2021/03/08 01:32:58;;;;;;;2.13;2.03;;;23.20;28.00;;;;;;5072901;28;20691;-61
2021/03/08 01:35:24;;;;;;;3.53;2.10;;;23.20;28.40;;;;;;5073005;28;20212;-61
2021/03/08 01:37:50;;;;;;;2.50;2.30;;;23.20;27.90;;;;;;5054241;28;20209;-60
2021/03/08 01:40:15;;;;;;;2.57;2.13;;;23.20;27.90;;;;;;5070168;28;20213;-61
2021/03/08 01:42:41;;;;;;;2.50;2.00;;;23.20;27.90;;;;;;5072827;28;20200;-61
2021/03/08 01:45:07;;;;;;;2.60;2.40;;;23.20;27.90;;;;;;5073110;28;20212;-61
2021/03/08 01:47:33;;;;;;;2.10;1.90;;;23.20;27.90;;;;;;5073392;28;20235;-61
2021/03/08 01:49:59;;;;;;;2.25;1.90;;;23.20;27.90;;;;;;5072944;28;20225;-61
2021/03/08 01:52:25;;;;;;;2.63;1.93;;;23.20;27.90;;;;;;5073066;28;20200;-62
2021/03/08 01:54:51;;;;;;;2.80;2.10;;;23.20;27.90;;;;;;5072435;28;20556;-61
2021/03/08 01:57:17;;;;;;;2.27;2.00;;;23.20;27.90;;;;;;5073402;28;20715;-61
2021/03/08 01:59:43;;;;;;;2.70;2.50;;;23.20;27.90;;;;;;5071704;28;20205;-61
2021/03/08 02:02:09;;;;;;;2.57;2.03;;;23.20;27.90;;;;;;5071937;28;20216;-60
2021/03/08 02:04:35;;;;;;;2.17;1.90;;;23.20;27.90;;;;;;5071534;28;20215;-60
2021/03/08 02:07:00;;;;;;;2.53;2.17;;;23.20;27.90;;;;;;5068305;28;20225;-60
2021/03/08 02:09:26;;;;;;;3.27;2.10;;;23.20;27.90;;;;;;5072282;28;20205;-60
2021/03/08 02:11:52;;;;;;;3.50;2.10;;;23.20;27.90;;;;;;5071501;28;20201;-59
2021/03/08 02:14:18;;;;;;;2.03;1.93;;;23.20;27.90;;;;;;5071792;28;20559;-60
2021/03/08 02:16:44;;;;;;;2.37;2.17;;;23.20;27.90;;;;;;5072581;28;20731;-60
2021/03/08 02:19:10;;;;;;;2.10;1.90;;;23.20;27.90;;;;;;5064440;28;20208;-60
2021/03/08 02:21:36;;;;;;;2.17;1.80;;;23.20;27.90;;;;;;5072718;28;20216;-60
2021/03/08 02:24:02;;;;;;;2.50;2.30;;;23.20;27.90;;;;;;5069494;28;20197;-60
2021/03/08 02:26:28;;;;;;;2.37;2.17;;;23.20;27.90;;;;;;5072789;28;20221;-60
2021/03/08 02:28:54;;;;;;;2.03;1.87;;;23.20;27.90;;;;;;5071638;28;20205;-60
2021/03/08 02:31:20;;;;;;;2.60;2.40;;;23.20;27.90;;;;;;5072534;28;20232;-60
2021/03/08 02:33:45;;;;;;;2.40;2.20;;;23.20;27.90;;;;;;5071738;28;20209;-60
2021/03/08 02:36:11;;;;;;;2.03;1.83;;;23.20;27.80;;;;;;5072468;28;20217;-62
2021/03/08 02:38:37;;;;;;;1.83;1.73;;;23.20;27.80;;;;;;5069439;28;20560;-60
2021/03/08 02:41:03;;;;;;;2.20;2.00;;;23.20;27.90;;;;;;5072150;28;20575;-60
2021/03/08 02:43:30;;;;;;;2.23;2.03;;;23.20;27.90;;;;;;5070111;28;20683;-60
2021/03/08 02:45:56;;;;;;;2.70;2.27;;;23.20;27.80;;;;;;5070191;28;20227;-60
2021/03/08 02:48:21;;;;;;;2.47;2.08;;;23.20;27.90;;;;;;5071409;28;20197;-60
2021/03/08 02:50:47;;;;;;;2.63;2.20;;;23.20;27.90;;;;;;5071195;28;20231;-61
2021/03/08 02:53:13;;;;;;;2.50;2.30;;;23.20;27.80;;;;;;5069065;28;20204;-60
2021/03/08 02:55:39;;;;;;;2.57;2.37;;;23.20;27.80;;;;;;5071113;28;20646;-60
2021/03/08 02:58:05;;;;;;;2.40;2.20;;;23.20;27.90;;;;;;5069295;28;20725;-60
2021/03/08 03:00:31;;;;;;;2.33;1.90;;;23.20;27.80;;;;;;5070765;28;20221;-60
2021/03/08 03:02:57;;;;;;;2.27;2.07;;;23.20;27.80;;;;;;5067602;28;20209;-60
2021/03/08 03:05:23;;;;;;;2.00;1.80;;;23.20;28.30;;;;;;5071741;28;20235;-60
2021/03/08 03:07:49;;;;;;;2.37;2.17;;;23.20;27.90;;;;;;5068034;28;20211;-60
2021/03/08 03:10:15;;;;;;;3.47;2.05;;;23.20;27.90;;;;;;5071974;28;20231;-60
2021/03/08 03:12:41;;;;;;;2.83;2.50;;;23.20;27.90;;;;;;5070579;28;20208;-60
2021/03/08 03:15:06;;;;;;;2.40;1.90;;;23.20;27.90;;;;;;5070094;28;20217;-60
2021/03/08 03:17:32;;;;;;;1.97;1.83;;;23.20;27.90;;;;;;5069978;28;20545;-60
2021/03/08 03:19:58;;;;;;;2.10;1.90;;;23.20;27.90;;;;;;5070129;28;20216;-60
2021/03/08 03:22:24;;;;;;;2.00;1.90;;;23.20;27.90;;;;;;5068025;28;20254;-61
2021/03/08 03:24:50;;;;;;;2.67;1.92;;;23.20;27.90;;;;;;5070555;28;20209;-61
2021/03/08 03:27:16;;;;;;;1.87;1.77;;;23.20;27.90;;;;;;5070378;28;20235;-60
2021/03/08 03:29:42;;;;;;;2.23;2.00;;;23.20;27.90;;;;;;5069677;28;20214;-60
2021/03/08 03:32:08;;;;;;;2.15;1.95;;;23.20;27.90;;;;;;5067637;28;20205;-60
2021/03/08 03:34:34;;;;;;;2.33;1.80;;;23.20;27.90;;;;;;5070224;28;20201;-60
2021/03/08 03:37:00;;;;;;;2.00;1.90;;;23.20;27.90;;;;;;5069577;28;20693;-60
2021/03/08 03:39:26;;;;;;;2.47;1.77;;;23.20;27.90;;;;;;5069344;28;20661;-60
2021/03/08 03:41:51;;;;;;;2.13;1.87;;;23.10;27.80;;;;;;5075446;23;20746;-50
2021/03/08 03:44:17;;;;;;;2.03;1.80;;;23.20;27.90;;;;;;5067596;28;20204;-44
2021/03/08 03:46:43;;;;;;;1.95;1.85;;;23.20;27.90;;;;;;5065374;28;20224;-45
2021/03/08 03:49:09;;;;;;;2.00;1.90;;;23.20;27.90;;;;;;5071156;28;20201;-42
2021/03/08 03:51:35;;;;;;;2.17;1.85;;;23.20;27.90;;;;;;5069896;28;20235;-50
2021/03/08 03:54:01;;;;;;;3.53;1.80;;;23.20;27.80;;;;;;5068559;28;20201;-44
2021/03/08 03:56:27;;;;;;;2.37;2.07;;;23.20;27.80;;;;;;5066570;28;20256;-43
2021/03/08 03:58:53;;;;;;;2.23;2.10;;;23.20;28.40;;;;;;5063498;28;20584;-42
2021/03/08 04:01:19;;;;;;;2.07;1.90;;;23.20;27.80;;;;;;5067996;28;20205;-42
2021/03/08 04:03:45;;;;;;;2.80;2.30;;;23.20;27.80;;;;;;5068052;28;20206;-51
2021/03/08 04:06:11;;;;;;;4.70;2.17;;;23.20;27.80;;;;;;5069539;28;20708;-47
2021/03/08 04:08:36;;;;;;;4.57;2.20;;;23.20;27.80;;;;;;5069571;28;20645;-44
2021/03/08 04:11:02;;;;;;;2.03;1.92;;;23.20;27.90;;;;;;5070204;28;20228;-45
2021/03/08 04:13:28;;;;;;;2.72;1.98;;;23.20;27.90;;;;;;5067657;28;20218;-42
2021/03/08 04:15:54;;;;;;;4.70;2.20;;;23.10;28.10;;;;;;5067879;28;20217;-48
2021/03/08 04:18:20;;;;;;;2.13;1.93;;;23.10;28.10;;;;;;5072878;28;20201;-42
2021/03/08 04:20:46;;;;;;;3.00;2.00;;;23.10;28.10;;;;;;5072079;28;20200;-42
2021/03/08 04:23:12;;;;;;;2.15;1.95;;;23.10;28.10;;;;;;5072757;28;20211;-45
2021/03/08 04:25:38;;;;;;;2.43;2.20;;;23.10;28.10;;;;;;5071545;28;20246;-42
2021/03/08 04:28:04;;;;;;;1.90;1.80;;;23.10;28.10;;;;;;5073353;28;20204;-44
2021/03/08 04:30:30;;;;;;;2.13;1.87;;;23.10;28.10;;;;;;5072890;28;20244;-43
2021/03/08 04:32:56;;;;;;;2.22;1.90;;;23.10;28.10;;;;;;5072026;28;20224;-44
2021/03/08 04:35:21;;;;;;;4.07;2.30;;;23.10;28.10;;;;;;5071386;28;20590;-42
2021/03/08 04:37:47;;;;;;;3.20;2.00;;;23.10;28.00;;;;;;5073347;28;20208;-43
2021/03/08 04:40:13;;;;;;;2.60;1.80;;;23.10;28.10;;;;;;5072719;28;20204;-42
2021/03/08 04:42:39;;;;;;;2.17;2.00;;;23.10;28.00;;;;;;5068895;28;20228;-44
2021/03/08 04:45:05;;;;;;;3.20;2.10;;;23.10;28.00;;;;;;5073677;28;20224;-48
2021/03/08 04:47:31;;;;;;;3.70;2.10;;;23.20;28.00;;;;;;5073287;28;20213;-44
2021/03/08 04:49:57;;;;;;;1.90;1.70;;;23.20;28.00;;;;;;5075157;28;20559;-46
2021/03/08 04:52:23;;;;;;;2.00;1.90;;;23.10;27.90;;;;;;5072487;28;20224;-42
2021/03/08 04:54:49;;;;;;;4.57;2.00;;;23.10;27.80;;;;;;5073525;28;20230;-42
2021/03/08 04:57:15;;;;;;;2.40;2.20;;;23.20;27.90;;;;;;5070366;28;20209;-41
2021/03/08 04:59:41;;;;;;;2.50;2.10;;;23.20;27.90;;;;;;5072223;28;20208;-43
2021/03/08 05:02:06;;;;;;;2.00;1.90;;;23.20;27.90;;;;;;5073607;28;20216;-47
2021/03/08 05:04:32;;;;;;;2.55;2.13;;;23.10;27.80;;;;;;5069883;28;20207;-50
2021/03/08 05:06:58;;;;;;;3.50;1.90;;;23.20;27.90;;;;;;5071275;28;20224;-51
2021/03/08 05:09:24;;;;;;;2.23;2.00;;;23.10;27.90;;;;;;5070717;28;20660;-44
2021/03/08 05:11:50;;;;;;;3.67;2.37;;;23.10;27.80;;;;;;5061665;28;20229;-42
2021/03/08 05:14:16;;;;;;;3.33;2.40;;;23.10;27.80;;;;;;5070623;28;20215;-47
2021/03/08 05:16:42;;;;;;;2.43;2.20;;;23.10;27.90;;;;;;5069884;28;20229;-49
2021/03/08 05:19:08;;;;;;;2.13;1.93;;;23.10;27.90;;;;;;5073079;28;20216;-47
2021/03/08 05:21:34;;;;;;;2.03;1.83;;;23.10;27.90;;;;;;5071923;28;20213;-44
2021/03/08 05:24:00;;;;;;;2.90;2.27;;;23.10;27.90;;;;;;5072429;28;20205;-49
2021/03/08 05:26:26;;;;;;;4.13;2.00;;;23.10;27.90;;;;;;5071889;28;20815;-43
2021/03/08 05:28:52;;;;;;;1.90;1.80;;;23.10;27.90;;;;;;5064287;28;20208;-42
2021/03/08 05:31:17;;;;;;;2.33;2.13;;;23.10;28.00;;;;;;5068982;28;20244;-44
2021/03/08 05:33:43;;;;;;;3.05;1.95;;;23.10;28.00;;;;;;5069391;28;20213;-44
2021/03/08 05:36:09;;;;;;;2.23;1.77;;;23.10;28.00;;;;;;5070326;28;20223;-55
2021/03/08 05:38:35;;;;;;;2.37;1.90;;;23.10;28.00;;;;;;5071068;28;20220;-46
2021/03/08 05:41:01;;;;;;;2.27;1.67;;;23.10;28.10;;;;;;5073463;28;20204;-47
2021/03/08 05:43:27;;;;;;;2.27;2.07;;;23.10;28.10;;;;;;5070874;28;20585;-47
2021/03/08 05:45:53;;;;;;;2.07;1.97;;;23.10;28.10;;;;;;5071532;28;20685;-51
2021/03/08 05:48:19;;;;;;;2.33;1.93;;;23.10;28.00;;;;;;5072084;28;20738;-41
2021/03/08 05:50:45;;;;;;;2.47;2.00;;;23.10;28.60;;;;;;5072576;28;20275;-46
2021/03/08 05:53:11;;;;;;;2.90;1.93;;;23.10;28.10;;;;;;5070270;28;20208;-42
2021/03/08 05:55:37;;;;;;;2.17;1.97;;;23.10;28.10;;;;;;5073364;28;20298;-41
2021/03/08 05:58:03;;;;;;;2.30;2.10;;;23.10;28.10;;;;;;5068434;28;20627;-41
2021/03/08 06:00:29;;;;;;;2.80;2.00;;;23.10;28.10;;;;;;5071669;28;20212;-45
2021/03/08 06:02:55;;;;;;;2.30;2.07;;;23.10;28.10;;;;;;5069270;28;20254;-41
2021/03/08 06:05:21;;;;;;;2.40;2.20;;;23.10;28.10;;;;;;5070904;28;20225;-43
2021/03/08 06:07:47;;;;;;;3.05;2.13;;;23.10;28.00;;;;;;5069037;28;20196;-46
2021/03/08 06:10:12;;;;;;;3.00;1.80;;;23.10;28.50;;;;;;5071712;28;20240;-46
2021/03/08 06:12:38;;;;;;;2.53;2.20;;;23.10;27.90;;;;;;5071951;28;20564;-43
2021/03/08 06:15:04;;;;;;;3.07;1.90;;;23.10;27.90;;;;;;5067910;28;20232;-46
2021/03/08 06:17:30;;;;;;;2.13;1.80;;;23.10;27.80;;;;;;5069497;28;20204;-44
2021/03/08 06:19:56;;;;;;;2.77;2.07;;;23.10;27.80;;;;;;5073002;28;20206;-46
2021/03/08 06:22:22;;;;;;;2.20;2.00;;;23.10;28.20;;;;;;5070194;28;20306;-46
2021/03/08 06:24:48;;;;;;;2.10;1.90;;;23.20;27.70;;;;;;5073097;28;20223;-48
2021/03/08 06:27:14;;;;;;;2.63;2.20;;;23.10;27.70;;;;;;5071294;28;20200;-46
2021/03/08 06:29:40;;;;;;;2.20;2.00;;;23.10;27.60;;;;;;5070603;28;20485;-44
2021/03/08 06:32:06;;;;;;;3.43;2.07;;;23.20;27.70;;;;;;5068454;28;20255;-44
2021/03/08 06:34:32;;;;;;;2.78;1.70;;;23.10;27.70;;;;;;5072763;28;20221;-44
2021/03/08 06:36:58;;;;;;;2.27;1.90;;;23.10;27.80;;;;;;5071626;28;20562;-45
2021/03/08 06:39:24;;;;;;;3.77;2.13;;;23.10;27.90;;;;;;5069715;28;20645;-42
2021/03/08 06:41:50;;;;;;;2.83;2.20;;;23.10;27.80;;;;;;5070896;28;20237;-42
2021/03/08 06:44:16;;;;;;;2.10;1.90;;;23.10;27.80;;;;;;5068449;28;20205;-44
2021/03/08 06:46:41;;;;;;;1.77;1.60;;;23.10;27.90;;;;;;5065776;28;20209;-46
2021/03/08 06:49:07;;;;;;;2.30;2.10;;;23.10;27.90;;;;;;5069915;28;20205;-46
2021/03/08 06:51:33;;;;;;;1.80;1.70;;;23.10;27.90;;;;;;5070644;28;20232;-46
2021/03/08 06:53:59;;;;;;;2.30;2.07;;;23.10;28.40;;;;;;5068420;28;20235;-50
2021/03/08 06:56:25;;;;;;;3.30;2.30;;;23.10;27.90;;;;;;5072217;28;20673;-45
2021/03/08 06:58:51;;;;;;;1.80;1.70;;;23.10;27.90;;;;;;5070646;28;20205;-42
2021/03/08 07:01:17;;;;;;;2.60;2.40;;;23.10;27.70;;;;;;5069177;28;20207;-42
2021/03/08 07:03:43;;;;;;;2.17;2.07;;;23.10;27.80;;;;;;5069693;28;20211;-45
2021/03/08 07:06:09;;;;;;;2.00;1.80;;;23.10;27.80;;;;;;5070484;28;20224;-44
2021/03/08 07:08:35;;;;;;;2.30;2.10;;;23.10;27.90;;;;;;5071547;28;20198;-47
2021/03/08 07:11:01;;;;;;;2.00;1.80;;;23.10;27.90;;;;;;5067080;28;20229;-46
2021/03/08 07:13:26;;;;;;;2.23;1.60;;;23.10;27.90;;;;;;5067195;28;20630;-42
2021/03/08 07:15:53;;;;;;;3.23;2.00;;;23.10;27.80;;;;;;5072125;28;20220;-47
2021/03/08 07:18:19;;;;;;;1.93;1.80;;;23.10;27.80;;;;;;5069451;28;20201;-45
2021/03/08 07:20:44;;;;;;;4.57;1.93;;;23.10;27.70;;;;;;5064796;28;20326;-43
2021/03/08 07:23:10;;;;;;;2.07;1.87;;;23.10;27.70;;;;;;5069020;28;20565;-41
2021/03/08 07:25:36;;;;;;;2.33;1.60;;;23.10;27.70;;;;;;5061445;28;20231;-44
2021/03/08 07:28:02;;;;;;;2.57;1.80;;;23.20;27.70;;;;;;5069686;28;20211;-47
2021/03/08 07:30:28;;;;;;;3.27;2.13;;;23.10;27.60;;;;;;5069740;28;20247;-46
2021/03/08 07:32:54;;;;;;;2.20;1.83;;;23.10;27.60;;;;;;5069581;28;20208;-42
2021/03/08 07:35:20;;;;;;;2.03;1.80;;;23.10;27.60;;;;;;5070199;28;20231;-41
2021/03/08 07:37:46;;;;;;;3.07;2.10;;;23.10;27.60;;;;;;5070607;28;20210;-48
2021/03/08 07:40:12;;;;;;;5.53;1.90;;;23.10;27.60;;;;;;5065702;28;20327;-44
2021/03/08 07:42:38;;;;;;;3.27;1.87;;;23.10;27.50;;;;;;5063544;28;20811;-43
2021/03/08 07:45:04;;;;;;;6.17;2.87;;;23.10;27.70;;;;;;5060324;28;20236;-46
2021/03/08 07:47:30;;;;;;;9.07;1.80;;;23.10;28.60;;;;;;5062523;28;20204;-45
2021/03/08 07:49:56;;;;;;;4.07;2.60;;;23.10;28.10;;;;;;5059767;28;20251;-47
2021/03/08 07:52:22;;;;;;;4.40;2.10;;;23.10;28.10;;;;;;5061518;28;20208;-40
2021/03/08 07:54:48;;;;;;;5.37;2.33;;;23.10;28.10;;;;;;5061431;28;20633;-44
2021/03/08 07:57:14;;;;;;;2.80;2.03;;;23.10;28.10;;;;;;5061341;28;20541;-48
2021/03/08 07:59:40;;;;;;;3.67;2.20;;;23.10;28.10;;;;;;5060630;28;20202;-44
2021/03/08 08:02:06;;;;;;;4.03;2.00;;;23.00;28.00;;;;;;5059587;28;20204;-42
2021/03/08 08:04:32;;;;;;;5.80;1.97;;;23.00;28.20;;;;;;5060569;28;20228;-51
2021/03/08 08:06:58;;;;;;;5.93;2.20;;;23.00;28.20;;;;;;5064124;28;20196;-44
2021/03/08 08:09:23;;;;;;;6.67;2.50;;;23.10;28.10;;;;;;5069142;28;20615;-46
2021/03/08 08:11:49;;;;;;;6.23;2.60;;;23.10;28.10;;;;;;5068392;28;20286;-44
2021/03/08 08:14:15;;;;;;;5.93;2.40;;;23.10;28.10;;;;;;5070626;28;20224;-43
2021/03/08 08:16:43;;;;;;;8.73;3.80;;;23.10;28.20;;;;;;5066539;28;20211;-42
2021/03/08 08:19:09;;;;;;;8.03;7.07;;;23.00;25.80;;;;;;5070689;28;20215;-46
2021/03/08 08:21:35;;;;;;;7.87;6.80;;;20.50;20.20;;;;;;5058757;28;20210;-43
2021/03/08 08:24:01;;;;;;;8.93;7.37;;;19.70;20.50;;;;;;5068911;28;20243;-44
2021/03/08 08:26:27;;;;;;;8.03;6.60;;;18.80;19.00;;;;;;5067013;28;20649;-42
2021/03/08 08:28:53;;;;;;;7.77;6.30;;;19.60;21.40;;;;;;5067706;28;20204;-47
2021/03/08 08:31:19;;;;;;;5.77;5.13;;;20.60;21.20;;;;;;5069115;28;20228;-43
2021/03/08 08:33:45;;;;;;;4.23;3.83;;;21.30;21.50;;;;;;5069007;28;20198;-48
2021/03/08 08:36:11;;;;;;;4.63;3.50;;;21.60;22.10;;;;;;5067954;28;20205;-48
2021/03/08 08:38:37;;;;;;;4.07;3.00;;;21.90;22.60;;;;;;5067855;28;20205;-48
2021/03/08 08:41:03;;;;;;;3.43;2.70;;;22.10;23.10;;;;;;5067384;28;20209;-46
2021/03/08 08:43:28;;;;;;;5.00;2.73;;;22.20;23.60;;;;;;5070505;28;20249;-49
2021/03/08 08:45:56;;;;;;;3.30;2.80;;;22.30;23.70;;;;;;5068600;28;20256;-45
2021/03/08 08:48:22;;;;;;;4.63;2.60;;;22.40;23.70;;;;;;5070150;28;20207;-46
2021/03/08 08:50:47;;;;;;;3.87;2.53;;;22.50;24.20;;;;;;5064193;28;20281;-46
2021/03/08 08:53:13;;;;;;;2.87;2.33;;;22.50;24.40;;;;;;5068686;28;20199;-45
2021/03/08 08:55:39;;;;;;;4.07;2.30;;;22.60;24.70;;;;;;5070006;28;20219;-43
2021/03/08 08:58:05;;;;;;;2.40;2.10;;;22.70;24.90;;;;;;5068910;28;20200;-44
2021/03/08 09:00:31;;;;;;;2.60;2.10;;;22.80;25.10;;;;;;5070502;28;20224;-44
2021/03/08 09:02:59;;;;;;;2.93;2.10;;;22.80;25.10;;;;;;5067060;28;20820;-43
2021/03/08 09:05:25;;;;;;;2.27;2.00;;;22.90;25.30;;;;;;5073397;28;20232;-45
2021/03/08 09:07:51;;;;;;;3.07;2.13;;;22.80;25.30;;;;;;5072146;28;20222;-42
2021/03/08 09:10:17;;;;;;;2.50;2.00;;;22.80;25.40;;;;;;5073063;28;20266;-43
2021/03/08 09:12:44;;;;;;;3.00;1.90;;;22.90;25.60;;;;;;5072521;28;20575;-42
2021/03/08 09:15:11;;;;;;;3.57;2.57;;;22.90;25.70;;;;;;5073005;28;20677;-45
2021/03/08 09:17:37;;;;;;;3.00;2.10;;;22.90;25.60;;;;;;5071740;28;20612;-46
2021/03/08 09:20:03;;;;;;;2.17;1.97;;;22.90;25.60;;;;;;5073535;28;20279;-47
2021/03/08 09:22:29;;;;;;;2.20;2.00;;;22.90;25.70;;;;;;5072237;28;20235;-46
2021/03/08 09:24:55;;;;;;;2.30;1.90;;;22.90;25.80;;;;;;5073563;28;20223;-46
2021/03/08 09:27:21;;;;;;;2.20;2.00;;;23.00;26.00;;;;;;5073987;28;20243;-45
2021/03/08 09:29:47;;;;;;;3.80;2.10;;;23.00;26.00;;;;;;5072204;28;20294;-42
2021/03/08 09:32:13;;;;;;;5.03;2.60;;;23.10;26.10;;;;;;5072125;28;20595;-44
2021/03/08 09:34:38;;;;;;;2.27;2.00;;;23.00;26.30;;;;;;5071302;28;20533;-48
2021/03/08 09:37:04;;;;;;;2.23;2.00;;;23.10;26.10;;;;;;5073962;28;20212;-45
2021/03/08 09:39:30;;;;;;;3.77;2.00;;;23.00;26.10;;;;;;5073793;28;20204;-46
2021/03/08 09:44:24;;;;;;;2.60;2.10;;;23.00;26.10;;;;;;5056601;28;20980;-46
2021/03/08 09:46:50;;;;;;;4.40;1.97;;;23.00;26.10;;;;;;5068737;28;20201;-52
2021/03/08 09:49:16;;;;;;;6.23;1.90;;;23.00;26.20;;;;;;5069598;28;20204;-43
2021/03/08 09:51:42;;;;;;;4.97;2.50;;;23.10;26.20;;;;;;5067646;28;20235;-44
2021/03/08 09:54:08;;;;;;;4.57;2.80;;;23.00;25.90;;;;;;5067813;28;20226;-47
2021/03/08 09:56:34;;;;;;;5.63;3.10;;;22.90;24.70;;;;;;5073832;28;20207;-48
2021/03/08 09:59:00;;;;;;;3.33;2.80;;;22.90;24.60;;;;;;5073811;28;20212;-47
2021/03/08 10:01:25;;;;;;;3.03;2.60;;;22.90;24.40;;;;;;5073589;28;20199;-44
2021/03/08 10:03:51;;;;;;;3.00;2.80;;;22.80;24.10;;;;;;5073212;28;20223;-44
2021/03/08 10:06:17;;;;;;;2.87;2.47;;;22.80;24.00;;;;;;5073673;28;20219;-44
2021/03/08 10:08:43;;;;;;;3.70;2.63;;;22.80;24.00;;;;;;5073356;28;20205;-44
2021/03/08 10:11:09;;;;;;;3.50;3.20;;;22.80;24.60;;;;;;5073425;28;20727;-44
2021/03/08 10:13:35;;;;;;;5.07;2.90;;;22.80;23.70;;;;;;5072638;28;20248;-46
2021/03/08 10:16:02;;;;;;;3.33;3.03;;;22.80;24.10;;;;;;5069952;28;20207;-44
2021/03/08 10:18:28;;;;;;;4.97;3.10;;;22.80;23.60;;;;;;5061362;28;20613;-45
2021/03/08 10:20:54;;;;;;;3.80;3.50;;;22.80;23.30;;;;;;5072045;28;20220;-44
2021/03/08 10:23:20;;;;;;;3.43;2.80;;;22.80;23.10;;;;;;5072875;28;20200;-44
2021/03/08 10:25:46;;;;;;;5.13;3.10;;;22.80;23.10;;;;;;5073015;28;20571;-43
2021/03/08 10:28:13;;;;;;;4.63;3.40;;;22.80;22.80;;;;;;5068639;28;20569;-45
2021/03/08 10:30:39;;;;;;;3.40;3.10;;;22.80;22.70;;;;;;5061017;28;20223;-44
2021/03/08 10:33:05;;;;;;;4.73;3.37;;;22.80;22.50;;;;;;5072586;28;20208;-43
2021/03/08 10:35:31;;;;;;;3.47;2.87;;;22.80;22.50;;;;;;5070739;28;20262;-47
2021/03/08 10:37:57;;;;;;;15.63;3.53;;;22.80;22.60;;;;;;5069517;28;20337;-45
2021/03/08 10:40:23;;;;;;;8.47;3.07;;;22.80;23.30;;;;;;5069369;28;20671;-43
2021/03/08 10:42:49;;;;;;;7.57;3.43;;;22.90;24.20;;;;;;5072278;28;20695;-44
2021/03/08 10:45:15;;;;;;;4.13;3.00;;;22.90;23.40;;;;;;5070708;28;20715;-42
2021/03/08 10:47:41;;;;;;;3.70;3.20;;;22.90;23.40;;;;;;5072638;28;20200;-46
2021/03/08 10:50:07;;;;;;;4.03;2.83;;;22.90;23.40;;;;;;5070706;28;20208;-47
2021/03/08 10:52:33;;;;;;;6.17;3.10;;;22.90;23.40;;;;;;5071490;28;20210;-45
2021/03/08 10:54:59;;;;;;;3.90;2.80;;;22.90;23.40;;;;;;5071138;28;20224;-47
2021/03/08 10:57:26;;;;;;;3.57;3.10;;;22.90;23.50;;;;;;5071245;28;20207;-48
2021/03/08 10:59:53;;;;;;;3.60;2.97;;;22.80;23.10;;;;;;5062144;28;20291;-44
2021/03/08 11:02:19;;;;;;;7.27;2.97;;;22.80;23.10;;;;;;5071404;28;20665;-48
2021/03/08 11:04:44;;;;;;;4.93;2.90;;;22.80;23.20;;;;;;5071435;28;20282;-44
2021/03/08 11:07:10;;;;;;;4.43;2.90;;;22.80;23.10;;;;;;5072584;28;20215;-43
2021/03/08 11:09:37;;;;;;;4.37;3.30;;;22.80;23.00;;;;;;5071285;28;20209;-43
2021/03/08 11:12:02;;;;;;;3.50;2.97;;;22.80;23.00;;;;;;5068584;28;20259;-43
2021/03/08 11:14:28;;;;;;;6.20;3.30;;;22.80;22.90;;;;;;5068896;28;20220;-46
2021/03/08 11:16:54;;;;;;;4.30;3.10;;;22.80;22.80;;;;;;5069567;28;20200;-46
2021/03/08 11:19:20;;;;;;;5.27;2.97;;;22.80;22.70;;;;;;5071335;28;20262;-44
2021/03/08 11:21:46;;;;;;;5.17;2.87;;;22.80;22.70;;;;;;5070611;28;20563;-46
2021/03/08 11:24:12;;;;;;;3.90;3.15;;;22.80;22.60;;;;;;5072045;28;20235;-45
2021/03/08 11:26:38;;;;;;;5.27;3.00;;;22.90;22.60;;;;;;5070750;28;20208;-45
2021/03/08 11:29:04;;;;;;;4.10;3.70;;;22.80;23.00;;;;;;5068491;28;20216;-43
2021/03/08 11:31:30;;;;;;;5.07;3.23;;;22.80;22.60;;;;;;5070634;28;20243;-46
2021/03/08 11:33:56;;;;;;;5.27;3.17;;;22.90;22.60;;;;;;5070383;28;20217;-43
2021/03/08 11:36:22;;;;;;;3.10;2.80;;;22.90;22.50;;;;;;5071622;28;20204;-46
2021/03/08 11:38:48;;;;;;;4.30;3.20;;;22.90;22.70;;;;;;5063014;28;20193;-43
2021/03/08 11:41:14;;;;;;;3.20;2.90;;;22.80;22.40;;;;;;5071361;28;20197;-48
2021/03/08 11:43:40;;;;;;;3.97;2.70;;;22.90;22.40;;;;;;5065626;28;20252;-43
2021/03/08 11:46:06;;;;;;;3.83;2.73;;;22.90;22.40;;;;;;5070748;28;20542;-44
2021/03/08 11:48:31;;;;;;;4.47;3.27;;;22.90;23.00;;;;;;5066232;28;20197;-43
2021/03/08 11:50:57;;;;;;;5.37;3.33;;;22.90;22.70;;;;;;5071361;28;20228;-45
2021/03/08 11:53:23;;;;;;;3.60;3.30;;;22.80;22.20;;;;;;5067820;28;20235;-46
2021/03/08 11:55:49;;;;;;;3.87;3.17;;;22.80;22.10;;;;;;5066194;28;20208;-44
2021/03/08 11:58:15;;;;;;;7.50;4.60;;;22.80;22.00;;;;;;5071341;28;20231;-44
2021/03/08 12:00:41;;;;;;;6.20;5.17;;;22.80;20.30;;;;;;5070296;28;20200;-46
2021/03/08 12:03:07;;;;;;;7.07;5.10;;;22.60;19.90;;;;;;5070199;28;20269;-45
2021/03/08 12:05:33;;;;;;;7.30;5.33;;;22.50;18.40;;;;;;5070244;28;20207;-43
2021/03/08 12:07:59;;;;;;;8.00;4.40;;;22.40;17.50;;;;;;5070736;28;20598;-44
2021/03/08 12:10:25;;;;;;;6.60;4.40;;;22.30;18.20;;;;;;5070361;28;20687;-43
2021/03/08 12:12:51;;;;;;;4.03;3.63;;;22.40;19.10;;;;;;5069870;28;20203;-45
2021/03/08 12:15:16;;;;;;;7.93;4.30;;;22.40;19.80;;;;;;5068359;28;20640;-43
2021/03/08 12:17:42;;;;;;;7.37;4.13;;;22.50;19.80;;;;;;5068548;28;20204;-42
2021/03/08 12:20:08;;;;;;;7.33;3.90;;;22.60;20.20;;;;;;5070547;28;20270;-46
2021/03/08 12:22:34;;;;;;;5.20;4.17;;;22.80;20.90;;;;;;5069564;28;20217;-47
2021/03/08 12:25:00;;;;;;;6.63;3.87;;;22.80;20.70;;;;;;5071061;28;20217;-44
2021/03/08 12:27:26;;;;;;;10.93;6.00;;;22.80;21.10;;;;;;5067787;28;20204;-50
2021/03/08 12:29:52;;;;;;;8.17;4.57;;;22.80;20.50;;;;;;5071170;28;20231;-45
2021/03/08 12:32:18;;;;;;;11.77;5.23;;;22.80;20.90;;;;;;5069740;28;20239;-47
2021/03/08 12:34:44;;;;;;;7.77;5.27;;;22.80;21.10;;;;;;5066452;28;20224;-48
2021/03/08 12:37:10;;;;;;;9.90;7.20;;;22.80;21.30;;;;;;5068319;28;20203;-49
2021/03/08 12:39:36;;;;;;;15.67;8.77;;;22.80;21.50;;;;;;5073132;28;20604;-45